sensor_id;sensor_type;location;lat;lon;timestamp;P1;durP1;ratioP1;P2;durP2;ratioP2
17574;SDS011;8906;43.590;1.418;2023-04-24T00:00:43;13.48;;;9.70;;
17574;SDS011;8906;43.590;1.418;2023-04-24T00:03:10;13.18;;;9.52;;
17574;SDS011;8906;43.590;1.418;2023-04-24T00:05:37;10.05;;;8.68;;
17574;SDS011;8906;43.590;1.418;2023-04-24T00:08:07;11.77;;;8.45;;
17574;SDS011;8906;43.590;1.418;2023-04-24T00:10:34;7.63;;;5.55;;
17574;SDS011;8906;43.590;1.418;2023-04-24T00:13:01;6.18;;;5.57;;
17574;SDS011;8906;43.590;1.418;2023-04-24T00:15:28;6.55;;;5.30;;
17574;SDS011;8906;43.590;1.418;2023-04-24T00:17:56;6.38;;;5.70;;
17574;SDS011;8906;43.590;1.418;2023-04-24T00:20:23;7.35;;;6.63;;
17574;SDS011;8906;43.590;1.418;2023-04-24T00:22:49;11.38;;;4.90;;
17574;SDS011;8906;43.590;1.418;2023-04-24T00:25:18;5.90;;;5.32;;
17574;SDS011;8906;43.590;1.418;2023-04-24T00:27:45;8.82;;;6.72;;
17574;SDS011;8906;43.590;1.418;2023-04-24T00:30:11;8.40;;;6.95;;
17574;SDS011;8906;43.590;1.418;2023-04-24T00:32:39;10.73;;;8.45;;
17574;SDS011;8906;43.590;1.418;2023-04-24T00:35:06;11.35;;;8.15;;
17574;SDS011;8906;43.590;1.418;2023-04-24T00:37:33;8.50;;;6.90;;
17574;SDS011;8906;43.590;1.418;2023-04-24T00:40:00;8.73;;;5.35;;
17574;SDS011;8906;43.590;1.418;2023-04-24T00:42:29;6.03;;;5.38;;
17574;SDS011;8906;43.590;1.418;2023-04-24T00:44:57;5.43;;;4.68;;
17574;SDS011;8906;43.590;1.418;2023-04-24T00:47:24;7.15;;;4.63;;
17574;SDS011;8906;43.590;1.418;2023-04-24T00:49:52;5.85;;;3.22;;
17574;SDS011;8906;43.590;1.418;2023-04-24T00:52:18;6.13;;;3.80;;
17574;SDS011;8906;43.590;1.418;2023-04-24T00:54:45;5.35;;;3.33;;
17574;SDS011;8906;43.590;1.418;2023-04-24T00:57:13;4.95;;;3.13;;
17574;SDS011;8906;43.590;1.418;2023-04-24T00:59:42;4.57;;;3.22;;
17574;SDS011;8906;43.590;1.418;2023-04-24T01:02:10;6.57;;;2.93;;
17574;SDS011;8906;43.590;1.418;2023-04-24T01:04:38;4.47;;;2.67;;
17574;SDS011;8906;43.590;1.418;2023-04-24T01:07:05;6.53;;;3.45;;
17574;SDS011;8906;43.590;1.418;2023-04-24T01:09:35;6.78;;;3.05;;
17574;SDS011;8906;43.590;1.418;2023-04-24T01:12:03;5.05;;;2.45;;
17574;SDS011;8906;43.590;1.418;2023-04-24T01:14:30;3.67;;;2.60;;
17574;SDS011;8906;43.590;1.418;2023-04-24T01:16:59;8.25;;;2.88;;
17574;SDS011;8906;43.590;1.418;2023-04-24T01:19:26;3.50;;;2.47;;
17574;SDS011;8906;43.590;1.418;2023-04-24T01:21:53;4.78;;;2.33;;
17574;SDS011;8906;43.590;1.418;2023-04-24T01:24:26;3.72;;;2.10;;
17574;SDS011;8906;43.590;1.418;2023-04-24T01:26:53;8.20;;;2.83;;
17574;SDS011;8906;43.590;1.418;2023-04-24T01:29:20;4.68;;;2.67;;
17574;SDS011;8906;43.590;1.418;2023-04-24T01:31:47;4.35;;;2.78;;
17574;SDS011;8906;43.590;1.418;2023-04-24T01:34:14;4.88;;;2.53;;
17574;SDS011;8906;43.590;1.418;2023-04-24T01:36:42;4.93;;;2.23;;
17574;SDS011;8906;43.590;1.418;2023-04-24T01:39:11;3.20;;;2.28;;
17574;SDS011;8906;43.590;1.418;2023-04-24T01:41:40;5.28;;;1.95;;
17574;SDS011;8906;43.590;1.418;2023-04-24T01:44:07;5.18;;;2.70;;
17574;SDS011;8906;43.590;1.418;2023-04-24T01:46:34;2.28;;;1.90;;
17574;SDS011;8906;43.590;1.418;2023-04-24T01:49:01;6.18;;;2.42;;
17574;SDS011;8906;43.590;1.418;2023-04-24T01:51:28;3.90;;;2.03;;
17574;SDS011;8906;43.590;1.418;2023-04-24T01:53:56;3.92;;;1.65;;
17574;SDS011;8906;43.590;1.418;2023-04-24T01:56:23;4.77;;;1.90;;
17574;SDS011;8906;43.590;1.418;2023-04-24T01:58:53;3.75;;;2.65;;
17574;SDS011;8906;43.590;1.418;2023-04-24T02:01:21;12.40;;;3.33;;
17574;SDS011;8906;43.590;1.418;2023-04-24T02:03:49;5.90;;;1.87;;
17574;SDS011;8906;43.590;1.418;2023-04-24T02:06:16;2.53;;;1.77;;
17574;SDS011;8906;43.590;1.418;2023-04-24T02:08:43;4.40;;;2.20;;
17574;SDS011;8906;43.590;1.418;2023-04-24T02:11:10;7.05;;;2.40;;
17574;SDS011;8906;43.590;1.418;2023-04-24T02:13:37;4.28;;;2.20;;
17574;SDS011;8906;43.590;1.418;2023-04-24T02:16:05;3.07;;;2.27;;
17574;SDS011;8906;43.590;1.418;2023-04-24T02:18:32;5.63;;;3.33;;
17574;SDS011;8906;43.590;1.418;2023-04-24T02:20:59;5.22;;;1.83;;
17574;SDS011;8906;43.590;1.418;2023-04-24T02:23:26;3.17;;;2.05;;
17574;SDS011;8906;43.590;1.418;2023-04-24T02:25:53;5.90;;;2.22;;
17574;SDS011;8906;43.590;1.418;2023-04-24T02:28:20;6.73;;;2.33;;
17574;SDS011;8906;43.590;1.418;2023-04-24T02:30:47;6.10;;;2.67;;
17574;SDS011;8906;43.590;1.418;2023-04-24T02:33:16;4.97;;;2.60;;
17574;SDS011;8906;43.590;1.418;2023-04-24T02:35:43;4.07;;;1.80;;
17574;SDS011;8906;43.590;1.418;2023-04-24T02:38:09;2.08;;;1.70;;
17574;SDS011;8906;43.590;1.418;2023-04-24T02:40:36;3.00;;;2.00;;
17574;SDS011;8906;43.590;1.418;2023-04-24T02:43:03;4.73;;;2.27;;
17574;SDS011;8906;43.590;1.418;2023-04-24T02:45:30;3.92;;;2.00;;
17574;SDS011;8906;43.590;1.418;2023-04-24T02:47:59;3.78;;;1.55;;
17574;SDS011;8906;43.590;1.418;2023-04-24T02:50:28;7.38;;;2.65;;
17574;SDS011;8906;43.590;1.418;2023-04-24T02:52:54;4.55;;;1.77;;
17574;SDS011;8906;43.590;1.418;2023-04-24T02:55:21;3.17;;;1.55;;
17574;SDS011;8906;43.590;1.418;2023-04-24T02:57:48;4.93;;;1.73;;
17574;SDS011;8906;43.590;1.418;2023-04-24T03:00:15;3.55;;;1.45;;
17574;SDS011;8906;43.590;1.418;2023-04-24T03:02:42;5.22;;;2.13;;
17574;SDS011;8906;43.590;1.418;2023-04-24T03:05:09;4.80;;;1.90;;
17574;SDS011;8906;43.590;1.418;2023-04-24T03:07:38;7.07;;;1.83;;
17574;SDS011;8906;43.590;1.418;2023-04-24T03:10:05;4.65;;;3.30;;
17574;SDS011;8906;43.590;1.418;2023-04-24T03:12:33;3.55;;;1.73;;
17574;SDS011;8906;43.590;1.418;2023-04-24T03:15:00;4.80;;;1.90;;
17574;SDS011;8906;43.590;1.418;2023-04-24T03:17:27;2.58;;;1.45;;
17574;SDS011;8906;43.590;1.418;2023-04-24T03:19:54;8.45;;;1.88;;
17574;SDS011;8906;43.590;1.418;2023-04-24T03:22:21;8.15;;;2.80;;
17574;SDS011;8906;43.590;1.418;2023-04-24T03:24:49;3.45;;;1.60;;
17574;SDS011;8906;43.590;1.418;2023-04-24T03:27:16;1.92;;;1.73;;
17574;SDS011;8906;43.590;1.418;2023-04-24T03:29:43;7.03;;;2.20;;
17574;SDS011;8906;43.590;1.418;2023-04-24T03:32:10;7.55;;;3.10;;
17574;SDS011;8906;43.590;1.418;2023-04-24T03:34:37;4.38;;;1.92;;
17574;SDS011;8906;43.590;1.418;2023-04-24T03:37:04;1.75;;;1.48;;
17574;SDS011;8906;43.590;1.418;2023-04-24T03:39:31;2.08;;;1.55;;
17574;SDS011;8906;43.590;1.418;2023-04-24T03:41:59;4.85;;;1.35;;
17574;SDS011;8906;43.590;1.418;2023-04-24T03:44:26;3.83;;;1.35;;
17574;SDS011;8906;43.590;1.418;2023-04-24T03:46:53;5.97;;;1.35;;
17574;SDS011;8906;43.590;1.418;2023-04-24T03:49:20;7.32;;;1.92;;
17574;SDS011;8906;43.590;1.418;2023-04-24T03:51:47;4.05;;;1.52;;
17574;SDS011;8906;43.590;1.418;2023-04-24T03:54:14;5.72;;;1.73;;
17574;SDS011;8906;43.590;1.418;2023-04-24T03:56:41;4.97;;;1.70;;
17574;SDS011;8906;43.590;1.418;2023-04-24T03:59:09;1.83;;;1.33;;
17574;SDS011;8906;43.590;1.418;2023-04-24T04:01:36;5.20;;;2.70;;
17574;SDS011;8906;43.590;1.418;2023-04-24T04:04:03;2.92;;;1.45;;
17574;SDS011;8906;43.590;1.418;2023-04-24T04:06:30;2.92;;;1.63;;
17574;SDS011;8906;43.590;1.418;2023-04-24T04:08:56;2.53;;;2.00;;
17574;SDS011;8906;43.590;1.418;2023-04-24T04:11:24;5.22;;;2.15;;
17574;SDS011;8906;43.590;1.418;2023-04-24T04:13:51;4.85;;;1.83;;
17574;SDS011;8906;43.590;1.418;2023-04-24T04:16:19;2.88;;;2.10;;
17574;SDS011;8906;43.590;1.418;2023-04-24T04:18:46;3.13;;;2.03;;
17574;SDS011;8906;43.590;1.418;2023-04-24T04:21:13;9.20;;;2.42;;
17574;SDS011;8906;43.590;1.418;2023-04-24T04:23:40;5.50;;;1.83;;
17574;SDS011;8906;43.590;1.418;2023-04-24T04:26:07;4.63;;;1.70;;
17574;SDS011;8906;43.590;1.418;2023-04-24T04:28:34;6.20;;;2.35;;
17574;SDS011;8906;43.590;1.418;2023-04-24T04:31:03;2.78;;;1.83;;
17574;SDS011;8906;43.590;1.418;2023-04-24T04:33:31;7.15;;;2.00;;
17574;SDS011;8906;43.590;1.418;2023-04-24T04:35:58;4.97;;;1.67;;
17574;SDS011;8906;43.590;1.418;2023-04-24T04:38:25;3.92;;;2.00;;
17574;SDS011;8906;43.590;1.418;2023-04-24T04:40:55;5.55;;;1.70;;
17574;SDS011;8906;43.590;1.418;2023-04-24T04:43:22;4.85;;;2.45;;
17574;SDS011;8906;43.590;1.418;2023-04-24T04:45:50;4.15;;;1.35;;
17574;SDS011;8906;43.590;1.418;2023-04-24T04:48:17;6.10;;;2.05;;
17574;SDS011;8906;43.590;1.418;2023-04-24T04:50:45;3.30;;;1.67;;
17574;SDS011;8906;43.590;1.418;2023-04-24T04:53:12;5.22;;;2.00;;
17574;SDS011;8906;43.590;1.418;2023-04-24T04:55:40;5.18;;;2.45;;
17574;SDS011;8906;43.590;1.418;2023-04-24T04:58:07;5.85;;;2.00;;
17574;SDS011;8906;43.590;1.418;2023-04-24T05:00:34;4.75;;;1.83;;
17574;SDS011;8906;43.590;1.418;2023-04-24T05:03:02;3.92;;;1.70;;
17574;SDS011;8906;43.590;1.418;2023-04-24T05:05:30;4.17;;;2.03;;
17574;SDS011;8906;43.590;1.418;2023-04-24T05:07:58;7.53;;;2.65;;
17574;SDS011;8906;43.590;1.418;2023-04-24T05:10:25;6.60;;;3.60;;
17574;SDS011;8906;43.590;1.418;2023-04-24T05:12:52;5.30;;;1.73;;
17574;SDS011;8906;43.590;1.418;2023-04-24T05:15:19;7.43;;;2.03;;
17574;SDS011;8906;43.590;1.418;2023-04-24T05:17:46;5.13;;;2.58;;
17574;SDS011;8906;43.590;1.418;2023-04-24T05:20:12;4.50;;;2.83;;
17574;SDS011;8906;43.590;1.418;2023-04-24T05:22:40;4.30;;;1.92;;
17574;SDS011;8906;43.590;1.418;2023-04-24T05:25:08;7.07;;;1.77;;
17574;SDS011;8906;43.590;1.418;2023-04-24T05:27:35;9.68;;;2.95;;
17574;SDS011;8906;43.590;1.418;2023-04-24T05:30:02;7.75;;;2.55;;
17574;SDS011;8906;43.590;1.418;2023-04-24T05:32:30;7.70;;;2.78;;
17574;SDS011;8906;43.590;1.418;2023-04-24T05:34:57;5.97;;;2.27;;
17574;SDS011;8906;43.590;1.418;2023-04-24T05:37:24;6.70;;;1.88;;
17574;SDS011;8906;43.590;1.418;2023-04-24T05:39:51;4.20;;;1.90;;
17574;SDS011;8906;43.590;1.418;2023-04-24T05:42:19;6.05;;;2.20;;
17574;SDS011;8906;43.590;1.418;2023-04-24T05:44:46;2.88;;;1.77;;
17574;SDS011;8906;43.590;1.418;2023-04-24T05:47:13;3.15;;;1.83;;
17574;SDS011;8906;43.590;1.418;2023-04-24T05:49:40;11.35;;;2.75;;
17574;SDS011;8906;43.590;1.418;2023-04-24T05:52:07;7.63;;;3.03;;
17574;SDS011;8906;43.590;1.418;2023-04-24T05:54:34;5.85;;;2.08;;
17574;SDS011;8906;43.590;1.418;2023-04-24T05:57:01;10.43;;;3.45;;
17574;SDS011;8906;43.590;1.418;2023-04-24T05:59:33;3.05;;;1.95;;
17574;SDS011;8906;43.590;1.418;2023-04-24T06:02:02;10.52;;;2.47;;
17574;SDS011;8906;43.590;1.418;2023-04-24T06:04:29;3.33;;;1.85;;
17574;SDS011;8906;43.590;1.418;2023-04-24T06:06:56;4.20;;;1.60;;
17574;SDS011;8906;43.590;1.418;2023-04-24T06:09:23;9.57;;;2.65;;
17574;SDS011;8906;43.590;1.418;2023-04-24T06:11:50;4.07;;;2.90;;
17574;SDS011;8906;43.590;1.418;2023-04-24T06:14:18;3.65;;;2.08;;
17574;SDS011;8906;43.590;1.418;2023-04-24T06:16:46;6.38;;;2.28;;
17574;SDS011;8906;43.590;1.418;2023-04-24T06:19:13;5.32;;;2.50;;
17574;SDS011;8906;43.590;1.418;2023-04-24T06:21:40;4.22;;;2.55;;
17574;SDS011;8906;43.590;1.418;2023-04-24T06:24:07;5.90;;;2.30;;
17574;SDS011;8906;43.590;1.418;2023-04-24T06:26:35;4.70;;;1.92;;
17574;SDS011;8906;43.590;1.418;2023-04-24T06:29:02;8.60;;;2.55;;
17574;SDS011;8906;43.590;1.418;2023-04-24T06:31:29;4.70;;;1.95;;
17574;SDS011;8906;43.590;1.418;2023-04-24T06:33:57;4.72;;;2.35;;
17574;SDS011;8906;43.590;1.418;2023-04-24T06:36:24;4.03;;;2.20;;
17574;SDS011;8906;43.590;1.418;2023-04-24T06:38:51;9.63;;;2.33;;
17574;SDS011;8906;43.590;1.418;2023-04-24T06:41:18;10.88;;;2.50;;
17574;SDS011;8906;43.590;1.418;2023-04-24T06:43:45;4.32;;;1.92;;
17574;SDS011;8906;43.590;1.418;2023-04-24T06:46:12;4.72;;;2.55;;
17574;SDS011;8906;43.590;1.418;2023-04-24T06:48:39;8.90;;;2.90;;
17574;SDS011;8906;43.590;1.418;2023-04-24T06:51:07;6.68;;;3.00;;
17574;SDS011;8906;43.590;1.418;2023-04-24T06:53:34;5.00;;;2.95;;
17574;SDS011;8906;43.590;1.418;2023-04-24T06:56:01;6.72;;;2.15;;
17574;SDS011;8906;43.590;1.418;2023-04-24T06:58:29;7.63;;;2.75;;
17574;SDS011;8906;43.590;1.418;2023-04-24T07:00:57;8.27;;;2.45;;
17574;SDS011;8906;43.590;1.418;2023-04-24T07:03:23;6.05;;;2.72;;
17574;SDS011;8906;43.590;1.418;2023-04-24T07:05:50;9.82;;;2.70;;
17574;SDS011;8906;43.590;1.418;2023-04-24T07:08:20;2.53;;;2.10;;
17574;SDS011;8906;43.590;1.418;2023-04-24T07:10:47;2.83;;;1.90;;
17574;SDS011;8906;43.590;1.418;2023-04-24T07:13:14;3.88;;;2.55;;
17574;SDS011;8906;43.590;1.418;2023-04-24T07:15:41;6.10;;;2.53;;
17574;SDS011;8906;43.590;1.418;2023-04-24T07:18:08;5.68;;;2.97;;
17574;SDS011;8906;43.590;1.418;2023-04-24T07:20:35;9.85;;;3.42;;
17574;SDS011;8906;43.590;1.418;2023-04-24T07:23:02;6.70;;;2.60;;
17574;SDS011;8906;43.590;1.418;2023-04-24T07:25:30;5.90;;;2.30;;
17574;SDS011;8906;43.590;1.418;2023-04-24T07:27:58;4.78;;;2.40;;
17574;SDS011;8906;43.590;1.418;2023-04-24T07:30:25;6.93;;;2.28;;
17574;SDS011;8906;43.590;1.418;2023-04-24T07:32:53;2.85;;;2.03;;
17574;SDS011;8906;43.590;1.418;2023-04-24T07:35:21;2.47;;;1.27;;
17574;SDS011;8906;43.590;1.418;2023-04-24T07:37:50;4.93;;;1.70;;
17574;SDS011;8906;43.590;1.418;2023-04-24T07:40:17;1.80;;;1.08;;
17574;SDS011;8906;43.590;1.418;2023-04-24T07:42:47;2.78;;;1.80;;
17574;SDS011;8906;43.590;1.418;2023-04-24T07:45:15;1.83;;;0.98;;
17574;SDS011;8906;43.590;1.418;2023-04-24T07:47:42;1.27;;;1.13;;
17574;SDS011;8906;43.590;1.418;2023-04-24T07:50:11;4.25;;;1.35;;
17574;SDS011;8906;43.590;1.418;2023-04-24T07:52:38;3.45;;;1.05;;
17574;SDS011;8906;43.590;1.418;2023-04-24T07:55:06;2.60;;;1.08;;
17574;SDS011;8906;43.590;1.418;2023-04-24T07:57:33;2.67;;;1.13;;
17574;SDS011;8906;43.590;1.418;2023-04-24T08:00:02;4.40;;;0.90;;
17574;SDS011;8906;43.590;1.418;2023-04-24T08:02:31;3.03;;;1.25;;
17574;SDS011;8906;43.590;1.418;2023-04-24T08:04:58;3.97;;;1.63;;
17574;SDS011;8906;43.590;1.418;2023-04-24T08:07:25;4.18;;;1.73;;
17574;SDS011;8906;43.590;1.418;2023-04-24T08:09:52;4.93;;;2.15;;
17574;SDS011;8906;43.590;1.418;2023-04-24T08:12:19;5.20;;;1.63;;
17574;SDS011;8906;43.590;1.418;2023-04-24T08:14:46;4.43;;;1.10;;
17574;SDS011;8906;43.590;1.418;2023-04-24T08:17:15;4.90;;;0.85;;
17574;SDS011;8906;43.590;1.418;2023-04-24T08:19:43;7.63;;;2.05;;
17574;SDS011;8906;43.590;1.418;2023-04-24T08:22:13;4.20;;;1.33;;
17574;SDS011;8906;43.590;1.418;2023-04-24T08:24:40;2.60;;;1.13;;
17574;SDS011;8906;43.590;1.418;2023-04-24T08:27:08;2.05;;;1.10;;
17574;SDS011;8906;43.590;1.418;2023-04-24T08:29:36;4.90;;;1.17;;
17574;SDS011;8906;43.590;1.418;2023-04-24T08:32:03;2.25;;;1.20;;
17574;SDS011;8906;43.590;1.418;2023-04-24T08:34:32;1.30;;;0.95;;
17574;SDS011;8906;43.590;1.418;2023-04-24T08:36:59;3.13;;;0.98;;
17574;SDS011;8906;43.590;1.418;2023-04-24T08:39:26;2.95;;;0.98;;
17574;SDS011;8906;43.590;1.418;2023-04-24T08:41:54;3.78;;;1.73;;
17574;SDS011;8906;43.590;1.418;2023-04-24T08:44:21;4.60;;;1.80;;
17574;SDS011;8906;43.590;1.418;2023-04-24T08:46:49;2.72;;;1.58;;
17574;SDS011;8906;43.590;1.418;2023-04-24T08:49:17;1.20;;;0.90;;
17574;SDS011;8906;43.590;1.418;2023-04-24T08:51:46;1.88;;;1.20;;
17574;SDS011;8906;43.590;1.418;2023-04-24T08:54:15;1.45;;;0.85;;
17574;SDS011;8906;43.590;1.418;2023-04-24T08:56:43;2.30;;;1.00;;
17574;SDS011;8906;43.590;1.418;2023-04-24T08:59:11;2.15;;;0.82;;
17574;SDS011;8906;43.590;1.418;2023-04-24T09:01:38;2.67;;;1.25;;
17574;SDS011;8906;43.590;1.418;2023-04-24T09:04:07;2.47;;;1.00;;
17574;SDS011;8906;43.590;1.418;2023-04-24T09:06:37;2.75;;;1.00;;
17574;SDS011;8906;43.590;1.418;2023-04-24T09:09:06;3.78;;;1.10;;
17574;SDS011;8906;43.590;1.418;2023-04-24T09:11:35;5.85;;;1.77;;
17574;SDS011;8906;43.590;1.418;2023-04-24T09:14:03;10.32;;;1.63;;
17574;SDS011;8906;43.590;1.418;2023-04-24T09:16:31;3.03;;;1.00;;
17574;SDS011;8906;43.590;1.418;2023-04-24T09:18:58;1.02;;;0.75;;
17574;SDS011;8906;43.590;1.418;2023-04-24T09:21:26;2.95;;;1.23;;
17574;SDS011;8906;43.590;1.418;2023-04-24T09:23:58;5.35;;;1.45;;
17574;SDS011;8906;43.590;1.418;2023-04-24T09:26:30;3.33;;;1.00;;
17574;SDS011;8906;43.590;1.418;2023-04-24T09:28:58;4.13;;;1.55;;
17574;SDS011;8906;43.590;1.418;2023-04-24T09:31:26;3.80;;;1.17;;
17574;SDS011;8906;43.590;1.418;2023-04-24T09:33:55;8.68;;;1.85;;
17574;SDS011;8906;43.590;1.418;2023-04-24T09:36:27;2.78;;;1.30;;
17574;SDS011;8906;43.590;1.418;2023-04-24T09:38:57;3.03;;;1.42;;
17574;SDS011;8906;43.590;1.418;2023-04-24T09:41:25;6.95;;;1.40;;
17574;SDS011;8906;43.590;1.418;2023-04-24T09:43:54;2.33;;;1.00;;
17574;SDS011;8906;43.590;1.418;2023-04-24T09:46:29;3.13;;;1.65;;
17574;SDS011;8906;43.590;1.418;2023-04-24T09:48:58;2.10;;;1.42;;
17574;SDS011;8906;43.590;1.418;2023-04-24T09:51:35;2.05;;;1.00;;
17574;SDS011;8906;43.590;1.418;2023-04-24T09:54:04;3.83;;;0.95;;
17574;SDS011;8906;43.590;1.418;2023-04-24T09:56:41;1.50;;;0.82;;
17574;SDS011;8906;43.590;1.418;2023-04-24T09:59:11;4.03;;;0.98;;
17574;SDS011;8906;43.590;1.418;2023-04-24T10:01:39;3.05;;;1.27;;
17574;SDS011;8906;43.590;1.418;2023-04-24T10:04:15;2.22;;;0.88;;
17574;SDS011;8906;43.590;1.418;2023-04-24T10:06:44;4.45;;;2.55;;
17574;SDS011;8906;43.590;1.418;2023-04-24T10:09:12;2.08;;;1.10;;
17574;SDS011;8906;43.590;1.418;2023-04-24T10:11:41;3.53;;;1.02;;
17574;SDS011;8906;43.590;1.418;2023-04-24T10:14:12;3.50;;;1.33;;
17574;SDS011;8906;43.590;1.418;2023-04-24T10:16:40;5.25;;;1.00;;
17574;SDS011;8906;43.590;1.418;2023-04-24T10:19:08;1.88;;;0.90;;
17574;SDS011;8906;43.590;1.418;2023-04-24T10:21:38;2.72;;;2.00;;
17574;SDS011;8906;43.590;1.418;2023-04-24T10:24:11;1.17;;;0.77;;
17574;SDS011;8906;43.590;1.418;2023-04-24T10:26:40;1.83;;;1.40;;
17574;SDS011;8906;43.590;1.418;2023-04-24T10:29:07;5.10;;;1.50;;
17574;SDS011;8906;43.590;1.418;2023-04-24T10:31:39;2.45;;;1.20;;
17574;SDS011;8906;43.590;1.418;2023-04-24T10:34:06;2.30;;;1.30;;
17574;SDS011;8906;43.590;1.418;2023-04-24T10:36:36;4.15;;;1.95;;
17574;SDS011;8906;43.590;1.418;2023-04-24T10:39:08;2.33;;;0.93;;
17574;SDS011;8906;43.590;1.418;2023-04-24T10:41:38;2.67;;;1.20;;
17574;SDS011;8906;43.590;1.418;2023-04-24T10:44:05;5.45;;;2.70;;
17574;SDS011;8906;43.590;1.418;2023-04-24T10:46:33;3.25;;;1.23;;
17574;SDS011;8906;43.590;1.418;2023-04-24T10:49:04;2.88;;;1.33;;
17574;SDS011;8906;43.590;1.418;2023-04-24T10:51:46;3.90;;;1.40;;
17574;SDS011;8906;43.590;1.418;2023-04-24T10:54:26;4.20;;;1.30;;
17574;SDS011;8906;43.590;1.418;2023-04-24T11:02:42;5.07;;;2.28;;
17574;SDS011;8906;43.590;1.418;2023-04-24T11:05:17;7.35;;;4.07;;
17574;SDS011;8906;43.590;1.418;2023-04-24T11:10:38;10.18;;;7.18;;
17574;SDS011;8906;43.590;1.418;2023-04-24T11:13:06;6.13;;;4.15;;
17574;SDS011;8906;43.590;1.418;2023-04-24T11:15:34;10.02;;;7.78;;
17574;SDS011;8906;43.590;1.418;2023-04-24T11:18:01;7.80;;;5.15;;
17574;SDS011;8906;43.590;1.418;2023-04-24T11:20:30;10.13;;;4.95;;
17574;SDS011;8906;43.590;1.418;2023-04-24T11:23:00;7.40;;;2.30;;
17574;SDS011;8906;43.590;1.418;2023-04-24T11:25:31;6.30;;;3.10;;
17574;SDS011;8906;43.590;1.418;2023-04-24T11:28:05;3.25;;;1.33;;
17574;SDS011;8906;43.590;1.418;2023-04-24T11:30:33;4.28;;;1.30;;
17574;SDS011;8906;43.590;1.418;2023-04-24T11:33:03;2.35;;;0.82;;
17574;SDS011;8906;43.590;1.418;2023-04-24T11:35:38;4.05;;;1.63;;
17574;SDS011;8906;43.590;1.418;2023-04-24T11:38:06;2.25;;;0.90;;
17574;SDS011;8906;43.590;1.418;2023-04-24T11:40:34;2.83;;;0.98;;
17574;SDS011;8906;43.590;1.418;2023-04-24T11:43:03;1.95;;;1.20;;
17574;SDS011;8906;43.590;1.418;2023-04-24T11:45:31;3.08;;;2.00;;
17574;SDS011;8906;43.590;1.418;2023-04-24T11:47:58;2.05;;;1.10;;
17574;SDS011;8906;43.590;1.418;2023-04-24T11:50:26;11.07;;;2.33;;
17574;SDS011;8906;43.590;1.418;2023-04-24T11:52:56;2.58;;;1.60;;
17574;SDS011;8906;43.590;1.418;2023-04-24T11:55:26;4.70;;;2.35;;
17574;SDS011;8906;43.590;1.418;2023-04-24T11:57:55;1.77;;;1.10;;
17574;SDS011;8906;43.590;1.418;2023-04-24T12:00:23;5.25;;;1.60;;
17574;SDS011;8906;43.590;1.418;2023-04-24T12:03:02;3.55;;;1.65;;
17574;SDS011;8906;43.590;1.418;2023-04-24T12:05:31;3.17;;;1.40;;
17574;SDS011;8906;43.590;1.418;2023-04-24T12:08:01;1.98;;;1.13;;
17574;SDS011;8906;43.590;1.418;2023-04-24T12:10:29;2.88;;;1.00;;
17574;SDS011;8906;43.590;1.418;2023-04-24T12:12:57;7.05;;;1.13;;
17574;SDS011;8906;43.590;1.418;2023-04-24T12:15:26;5.07;;;1.75;;
17574;SDS011;8906;43.590;1.418;2023-04-24T12:17:55;1.77;;;1.05;;
17574;SDS011;8906;43.590;1.418;2023-04-24T12:20:26;5.82;;;1.70;;
17574;SDS011;8906;43.590;1.418;2023-04-24T12:22:56;1.65;;;1.00;;
17574;SDS011;8906;43.590;1.418;2023-04-24T12:25:26;2.25;;;1.00;;
17574;SDS011;8906;43.590;1.418;2023-04-24T12:27:54;3.22;;;1.10;;
17574;SDS011;8906;43.590;1.418;2023-04-24T12:30:40;3.30;;;1.13;;
17574;SDS011;8906;43.590;1.418;2023-04-24T12:33:09;6.88;;;2.15;;
17574;SDS011;8906;43.590;1.418;2023-04-24T12:35:37;2.55;;;1.00;;
17574;SDS011;8906;43.590;1.418;2023-04-24T12:38:07;3.97;;;1.38;;
17574;SDS011;8906;43.590;1.418;2023-04-24T12:40:36;4.85;;;1.58;;
17574;SDS011;8906;43.590;1.418;2023-04-24T12:43:12;1.65;;;1.05;;
17574;SDS011;8906;43.590;1.418;2023-04-24T12:45:40;2.70;;;0.60;;
17574;SDS011;8906;43.590;1.418;2023-04-24T12:48:07;4.25;;;1.20;;
17574;SDS011;8906;43.590;1.418;2023-04-24T12:50:34;2.75;;;0.77;;
17574;SDS011;8906;43.590;1.418;2023-04-24T12:53:01;4.45;;;1.00;;
17574;SDS011;8906;43.590;1.418;2023-04-24T12:55:28;2.20;;;0.85;;
17574;SDS011;8906;43.590;1.418;2023-04-24T12:57:57;4.07;;;1.20;;
17574;SDS011;8906;43.590;1.418;2023-04-24T13:00:24;3.22;;;1.17;;
17574;SDS011;8906;43.590;1.418;2023-04-24T13:02:51;2.78;;;1.40;;
17574;SDS011;8906;43.590;1.418;2023-04-24T13:05:20;2.08;;;1.80;;
17574;SDS011;8906;43.590;1.418;2023-04-24T13:07:47;1.55;;;0.98;;
17574;SDS011;8906;43.590;1.418;2023-04-24T13:10:14;2.78;;;1.30;;
17574;SDS011;8906;43.590;1.418;2023-04-24T13:12:41;3.53;;;1.08;;
17574;SDS011;8906;43.590;1.418;2023-04-24T13:15:12;2.30;;;1.63;;
17574;SDS011;8906;43.590;1.418;2023-04-24T13:17:39;3.80;;;1.10;;
17574;SDS011;8906;43.590;1.418;2023-04-24T13:20:07;2.22;;;1.27;;
17574;SDS011;8906;43.590;1.418;2023-04-24T13:22:34;3.22;;;1.42;;
17574;SDS011;8906;43.590;1.418;2023-04-24T13:25:02;3.00;;;1.10;;
17574;SDS011;8906;43.590;1.418;2023-04-24T13:27:31;2.15;;;1.15;;
17574;SDS011;8906;43.590;1.418;2023-04-24T13:29:58;1.95;;;0.95;;
17574;SDS011;8906;43.590;1.418;2023-04-24T13:32:27;3.38;;;1.73;;
17574;SDS011;8906;43.590;1.418;2023-04-24T13:34:54;1.80;;;1.13;;
17574;SDS011;8906;43.590;1.418;2023-04-24T13:37:21;4.00;;;2.05;;
17574;SDS011;8906;43.590;1.418;2023-04-24T13:39:48;5.72;;;2.40;;
17574;SDS011;8906;43.590;1.418;2023-04-24T13:42:15;3.78;;;2.63;;
17574;SDS011;8906;43.590;1.418;2023-04-24T13:44:43;4.07;;;1.80;;
17574;SDS011;8906;43.590;1.418;2023-04-24T13:47:11;1.65;;;1.48;;
17574;SDS011;8906;43.590;1.418;2023-04-24T13:49:39;3.53;;;1.00;;
17574;SDS011;8906;43.590;1.418;2023-04-24T13:52:06;3.28;;;1.30;;
17574;SDS011;8906;43.590;1.418;2023-04-24T13:54:35;2.53;;;1.00;;
17574;SDS011;8906;43.590;1.418;2023-04-24T13:57:02;3.15;;;1.13;;
17574;SDS011;8906;43.590;1.418;2023-04-24T13:59:29;1.63;;;1.52;;
17574;SDS011;8906;43.590;1.418;2023-04-24T14:01:57;5.47;;;1.55;;
17574;SDS011;8906;43.590;1.418;2023-04-24T14:04:24;5.22;;;1.95;;
17574;SDS011;8906;43.590;1.418;2023-04-24T14:06:52;3.88;;;1.10;;
17574;SDS011;8906;43.590;1.418;2023-04-24T14:09:19;3.13;;;1.30;;
17574;SDS011;8906;43.590;1.418;2023-04-24T14:11:47;2.40;;;1.90;;
17574;SDS011;8906;43.590;1.418;2023-04-24T14:14:14;2.35;;;1.17;;
17574;SDS011;8906;43.590;1.418;2023-04-24T14:16:41;5.38;;;1.52;;
17574;SDS011;8906;43.590;1.418;2023-04-24T14:19:08;1.23;;;1.05;;
17574;SDS011;8906;43.590;1.418;2023-04-24T14:21:35;3.78;;;0.80;;
17574;SDS011;8906;43.590;1.418;2023-04-24T14:24:04;2.65;;;1.05;;
17574;SDS011;8906;43.590;1.418;2023-04-24T14:26:31;5.68;;;2.47;;
17574;SDS011;8906;43.590;1.418;2023-04-24T14:28:58;2.03;;;1.55;;
17574;SDS011;8906;43.590;1.418;2023-04-24T14:31:25;2.85;;;1.30;;
17574;SDS011;8906;43.590;1.418;2023-04-24T14:33:53;1.27;;;0.77;;
17574;SDS011;8906;43.590;1.418;2023-04-24T14:36:20;1.80;;;0.90;;
17574;SDS011;8906;43.590;1.418;2023-04-24T14:38:47;2.38;;;1.63;;
17574;SDS011;8906;43.590;1.418;2023-04-24T14:41:16;4.32;;;1.33;;
17574;SDS011;8906;43.590;1.418;2023-04-24T14:43:44;1.85;;;1.38;;
17574;SDS011;8906;43.590;1.418;2023-04-24T14:46:11;2.67;;;0.70;;
17574;SDS011;8906;43.590;1.418;2023-04-24T14:48:38;1.83;;;1.20;;
17574;SDS011;8906;43.590;1.418;2023-04-24T14:51:05;7.13;;;1.38;;
17574;SDS011;8906;43.590;1.418;2023-04-24T14:53:32;3.63;;;1.20;;
17574;SDS011;8906;43.590;1.418;2023-04-24T14:56:00;5.30;;;1.83;;
17574;SDS011;8906;43.590;1.418;2023-04-24T14:58:29;2.40;;;1.48;;
17574;SDS011;8906;43.590;1.418;2023-04-24T15:00:56;5.03;;;1.50;;
17574;SDS011;8906;43.590;1.418;2023-04-24T15:03:23;4.80;;;1.48;;
17574;SDS011;8906;43.590;1.418;2023-04-24T15:05:51;3.28;;;1.02;;
17574;SDS011;8906;43.590;1.418;2023-04-24T15:08:19;4.30;;;1.20;;
17574;SDS011;8906;43.590;1.418;2023-04-24T15:10:46;2.33;;;1.33;;
17574;SDS011;8906;43.590;1.418;2023-04-24T15:13:13;3.17;;;1.15;;